Time;durP1;ratioP1;P1;durP2;ratioP2;P2;SDS_P1;SDS_P2;PMS_P1;PMS_P2;Temp;Humidity;BMP_temperature;BMP_pressure;BME280_temperature;BME280_humidity;BME280_pressure;Samples;Min_cycle;Max_cycle;Signal;HPM_P1;HPM_P2
2021/04/30 00:00:31;;;;;;;17.58;9.48;;;14.50;99.90;;;;;;5048428;28;20021;-78
2021/04/30 00:02:56;;;;;;;18.98;9.52;;;14.50;99.90;;;;;;5035057;28;20049;-80
2021/04/30 00:05:24;;;;;;;24.20;9.90;;;14.50;99.90;;;;;;5048656;28;20031;-80
2021/04/30 00:07:50;;;;;;;26.90;9.38;;;14.40;99.90;;;;;;5037088;28;20484;-78
2021/04/30 00:10:16;;;;;;;25.50;9.73;;;14.50;99.90;;;;;;5050280;28;20031;-78
2021/04/30 00:12:41;;;;;;;16.08;9.18;;;14.50;99.90;;;;;;5038625;28;20388;-80
2021/04/30 00:15:08;;;;;;;19.38;8.95;;;14.60;99.90;;;;;;5049657;28;20545;-78
2021/04/30 00:17:34;;;;;;;22.20;9.68;;;14.60;99.90;;;;;;5039472;28;20155;-78
2021/04/30 00:19:59;;;;;;;25.63;9.90;;;14.60;99.90;;;;;;5047281;28;20491;-79
2021/04/30 00:22:25;;;;;;;26.60;9.80;;;14.60;99.90;;;;;;5040961;28;20480;-79
2021/04/30 00:24:51;;;;;;;24.42;9.70;;;14.60;99.90;;;;;;5045752;28;20115;-76
2021/04/30 00:27:17;;;;;;;21.25;8.75;;;14.60;99.90;;;;;;5041665;28;20030;-77
2021/04/30 00:29:43;;;;;;;21.55;9.93;;;14.60;99.90;;;;;;5044644;28;20033;-79
2021/04/30 00:32:08;;;;;;;21.08;8.68;;;14.60;99.90;;;;;;5042098;28;20047;-78
2021/04/30 00:34:34;;;;;;;20.73;10.02;;;14.60;99.90;;;;;;5035429;28;20071;-78
2021/04/30 00:37:00;;;;;;;19.08;10.02;;;14.60;99.90;;;;;;5034469;28;20052;-79
2021/04/30 00:39:25;;;;;;;18.20;8.82;;;14.60;99.90;;;;;;5036216;28;20033;-77
2021/04/30 00:41:51;;;;;;;21.75;10.20;;;14.60;99.90;;;;;;5038999;28;20028;-78
2021/04/30 00:44:17;;;;;;;25.55;9.75;;;14.60;99.90;;;;;;5064143;28;20039;-78
2021/04/30 00:46:43;;;;;;;17.40;8.85;;;14.60;99.90;;;;;;5062052;28;20075;-77
2021/04/30 00:49:08;;;;;;;25.13;11.07;;;14.60;99.90;;;;;;5034332;28;20021;-77
2021/04/30 00:51:34;;;;;;;21.15;10.07;;;14.60;99.90;;;;;;5066431;28;20025;-77
2021/04/30 00:54:00;;;;;;;27.33;9.25;;;14.70;99.90;;;;;;5069492;28;20064;-80
2021/04/30 00:56:26;;;;;;;21.80;9.45;;;14.70;99.90;;;;;;5063711;28;20033;-79
2021/04/30 00:58:52;;;;;;;26.83;9.38;;;14.80;99.90;;;;;;5044962;28;20031;-78
2021/04/30 01:01:19;;;;;;;21.27;9.02;;;14.80;99.90;;;;;;5050175;28;20025;-77
2021/04/30 01:03:47;;;;;;;15.90;10.00;;;14.80;99.90;;;;;;5044396;28;20040;-78
2021/04/30 01:06:14;;;;;;;22.45;9.88;;;14.80;99.90;;;;;;5050935;28;20022;-81
2021/04/30 01:08:40;;;;;;;30.27;10.33;;;14.80;99.90;;;;;;5042089;28;20492;-79
2021/04/30 01:11:06;;;;;;;25.95;11.07;;;14.70;99.90;;;;;;5033774;28;20712;-78
2021/04/30 01:13:32;;;;;;;23.58;10.23;;;14.70;99.90;;;;;;5042591;28;20026;-78
2021/04/30 01:15:57;;;;;;;31.85;13.20;;;14.70;99.90;;;;;;5033670;28;20029;-78
2021/04/30 01:18:23;;;;;;;25.75;11.00;;;14.70;99.90;;;;;;5042483;28;20391;-78
2021/04/30 01:20:50;;;;;;;23.55;10.60;;;14.60;99.90;;;;;;5051794;28;20024;-78
2021/04/30 01:23:18;;;;;;;36.63;12.07;;;14.60;99.90;;;;;;5043463;28;20480;-77
2021/04/30 01:25:47;;;;;;;22.60;10.18;;;14.70;99.90;;;;;;5031525;28;20072;-77
2021/04/30 01:28:13;;;;;;;30.50;10.68;;;14.60;99.90;;;;;;5042668;28;20017;-78
2021/04/30 01:30:39;;;;;;;34.58;11.65;;;14.70;99.90;;;;;;5032762;28;20033;-78
2021/04/30 01:33:21;;;;;;;29.60;11.00;;;14.60;99.90;;;;;;5040911;28;20037;-78
2021/04/30 01:35:47;;;;;;;29.08;10.52;;;14.60;99.90;;;;;;5051447;28;20268;-77
2021/04/30 01:38:14;;;;;;;24.15;10.25;;;14.60;99.90;;;;;;5041095;28;20016;-78
2021/04/30 01:40:39;;;;;;;32.10;11.48;;;14.60;99.90;;;;;;5051170;28;20163;-78
2021/04/30 01:43:17;;;;;;;25.45;12.05;;;14.50;99.90;;;;;;5040416;28;20132;-79
2021/04/30 01:45:55;;;;;;;22.80;10.18;;;14.50;99.90;;;;;;5051675;28;20279;-76
2021/04/30 01:48:29;;;;;;;26.23;11.35;;;14.50;99.90;;;;;;5039396;28;20472;-77
2021/04/30 01:50:57;;;;;;;25.40;11.10;;;14.50;99.90;;;;;;5051135;28;20029;-77
2021/04/30 01:53:25;;;;;;;25.20;10.55;;;14.50;99.90;;;;;;5041416;28;20040;-77
2021/04/30 01:55:56;;;;;;;22.15;9.68;;;14.50;99.90;;;;;;5050901;28;20048;-77
2021/04/30 01:58:22;;;;;;;33.60;10.52;;;14.50;99.90;;;;;;5039098;28;20115;-77
2021/04/30 02:00:49;;;;;;;20.90;10.32;;;14.50;99.90;;;;;;5050291;28;20013;-77
2021/04/30 02:03:14;;;;;;;26.08;11.13;;;14.50;99.90;;;;;;5040809;28;20610;-77
2021/04/30 02:05:41;;;;;;;29.77;10.25;;;14.50;99.90;;;;;;5051695;28;20061;-77
2021/04/30 02:08:12;;;;;;;24.60;11.10;;;14.50;99.90;;;;;;5042936;28;20036;-77
2021/04/30 02:10:38;;;;;;;23.27;11.35;;;14.50;99.90;;;;;;5032001;28;20260;-77
2021/04/30 02:13:05;;;;;;;21.27;9.97;;;14.50;99.90;;;;;;5039663;28;20112;-78
2021/04/30 02:15:34;;;;;;;21.50;11.35;;;14.50;99.90;;;;;;5051969;28;20267;-78
2021/04/30 02:18:00;;;;;;;22.40;10.38;;;14.50;99.90;;;;;;5037848;28;20041;-78
2021/04/30 02:20:26;;;;;;;23.43;10.13;;;14.50;99.90;;;;;;5051741;28;20029;-77
2021/04/30 02:22:52;;;;;;;24.75;11.20;;;14.50;99.90;;;;;;5037794;28;20025;-78
2021/04/30 02:25:20;;;;;;;28.48;10.52;;;14.60;99.90;;;;;;5051436;28;20399;-79
2021/04/30 02:27:48;;;;;;;24.48;9.90;;;14.50;99.90;;;;;;5038109;28;20120;-78
2021/04/30 02:30:15;;;;;;;25.98;10.45;;;14.50;99.90;;;;;;5012702;28;20037;-79
2021/04/30 02:32:42;;;;;;;19.40;10.35;;;14.60;99.90;;;;;;5033517;28;20365;-78
2021/04/30 02:35:32;;;;;;;22.85;10.43;;;14.60;99.90;;;;;;5051014;28;20017;-78
2021/04/30 02:37:59;;;;;;;23.27;11.05;;;14.60;99.90;;;;;;5037801;28;20025;-78
2021/04/30 02:40:28;;;;;;;24.23;10.15;;;14.60;99.90;;;;;;5051566;28;20517;-78
2021/04/30 02:43:10;;;;;;;24.77;11.57;;;14.60;99.90;;;;;;5039104;28;20030;-78
2021/04/30 02:45:36;;;;;;;22.80;10.93;;;14.60;99.90;;;;;;5051333;28;20437;-78
2021/04/30 02:48:02;;;;;;;24.73;10.02;;;14.60;99.90;;;;;;5037440;28;20479;-78
2021/04/30 02:50:30;;;;;;;20.83;9.05;;;14.60;99.90;;;;;;5050248;28;20398;-78
2021/04/30 02:52:57;;;;;;;32.42;9.50;;;14.60;99.90;;;;;;5038924;28;20029;-78
2021/04/30 02:55:25;;;;;;;21.58;9.50;;;14.50;99.90;;;;;;5050008;28;20047;-78
2021/04/30 02:57:52;;;;;;;25.70;10.40;;;14.60;99.90;;;;;;5038058;28;20566;-78
2021/04/30 03:00:18;;;;;;;22.75;9.13;;;14.60;99.90;;;;;;5031295;28;20440;-78
2021/04/30 03:02:43;;;;;;;29.35;10.10;;;14.60;99.90;;;;;;5036098;28;20068;-78
2021/04/30 03:05:13;;;;;;;19.05;9.65;;;14.60;99.90;;;;;;5050703;28;20080;-78
2021/04/30 03:07:39;;;;;;;22.88;8.63;;;14.60;99.90;;;;;;5038469;28;20262;-78
2021/04/30 03:10:06;;;;;;;17.98;10.38;;;14.60;99.90;;;;;;5049854;28;20147;-78
2021/04/30 03:12:31;;;;;;;;;;;14.60;99.90;;;;;;5046169;28;20165;-77
2021/04/30 03:14:57;;;;;;;25.02;9.45;;;14.60;99.90;;;;;;5033245;28;19909;-78
2021/04/30 03:17:23;;;;;;;24.63;10.95;;;14.60;99.90;;;;;;5036104;28;20036;-77
2021/04/30 03:19:49;;;;;;;27.02;10.90;;;14.60;99.90;;;;;;5047380;28;20025;-78
2021/04/30 03:22:15;;;;;;;16.67;8.37;;;14.50;99.90;;;;;;5042857;28;20083;-78
2021/04/30 03:24:41;;;;;;;28.60;10.02;;;14.60;99.90;;;;;;5045944;28;20044;-78
2021/04/30 03:27:06;;;;;;;20.77;8.70;;;14.70;99.90;;;;;;5043977;28;20155;-78
2021/04/30 03:29:32;;;;;;;24.80;9.35;;;14.70;99.90;;;;;;5045158;28;20021;-78
2021/04/30 03:31:58;;;;;;;19.60;9.00;;;14.70;99.90;;;;;;5044849;28;20110;-78
2021/04/30 03:34:24;;;;;;;27.55;9.13;;;14.60;99.90;;;;;;5042749;28;20124;-78
2021/04/30 03:36:49;;;;;;;21.40;8.82;;;14.70;99.90;;;;;;5046126;28;20065;-78
2021/04/30 03:39:15;;;;;;;20.65;8.43;;;14.70;99.90;;;;;;5041333;28;20025;-79
2021/04/30 03:41:41;;;;;;;16.98;8.95;;;14.70;99.90;;;;;;5046920;28;20021;-79
2021/04/30 03:44:06;;;;;;;19.08;9.18;;;14.70;99.90;;;;;;5041597;28;20040;-80
2021/04/30 03:46:32;;;;;;;17.88;8.35;;;14.70;99.90;;;;;;5045687;28;20447;-80
2021/04/30 03:48:58;;;;;;;29.00;8.73;;;14.70;99.90;;;;;;5040286;28;20025;-79
2021/04/30 03:51:24;;;;;;;24.42;9.05;;;14.70;99.90;;;;;;5047787;28;20022;-79
2021/04/30 03:53:49;;;;;;;19.58;9.13;;;14.70;99.90;;;;;;5040896;28;20021;-79
2021/04/30 03:56:15;;;;;;;26.33;8.80;;;14.80;99.90;;;;;;5046229;28;20048;-79
2021/04/30 03:58:41;;;;;;;19.48;8.38;;;14.80;99.90;;;;;;5040327;28;20028;-79
2021/04/30 04:01:07;;;;;;;25.85;9.00;;;14.80;99.90;;;;;;5048393;28;20045;-79
2021/04/30 04:03:33;;;;;;;20.80;8.77;;;14.80;99.90;;;;;;5040754;28;20021;-79
2021/04/30 04:06:00;;;;;;;25.33;9.55;;;14.80;99.90;;;;;;5031103;28;21101;-75
2021/04/30 04:08:25;;;;;;;19.05;9.55;;;14.80;99.90;;;;;;5040535;28;20026;-78
2021/04/30 04:10:53;;;;;;;19.90;8.30;;;14.80;99.90;;;;;;5029691;28;20499;-78
2021/04/30 04:13:21;;;;;;;19.17;8.68;;;14.90;99.90;;;;;;5037883;28;20326;-78
2021/04/30 04:15:49;;;;;;;24.02;8.60;;;14.90;99.90;;;;;;5047623;28;20485;-78
2021/04/30 04:18:15;;;;;;;;;;;14.90;99.90;;;;;;5039405;28;20021;-78
2021/04/30 04:20:42;;;;;;;23.95;8.73;;;14.80;99.90;;;;;;5049531;28;19912;-78
2021/04/30 04:23:08;;;;;;;25.15;10.13;;;14.80;99.90;;;;;;5040058;28;20052;-79
2021/04/30 04:25:35;;;;;;;15.73;8.27;;;14.80;99.90;;;;;;5031815;28;20488;-79
2021/04/30 04:28:01;;;;;;;21.10;8.88;;;14.80;99.90;;;;;;5040926;28;20029;-83
2021/04/30 04:30:27;;;;;;;20.05;8.43;;;14.80;99.90;;;;;;5054231;28;20104;-83
2021/04/30 04:32:53;;;;;;;18.30;8.80;;;14.80;99.90;;;;;;5040167;28;20121;-81
2021/04/30 04:35:20;;;;;;;18.03;8.07;;;14.80;99.90;;;;;;5032118;28;20519;-78
2021/04/30 04:37:46;;;;;;;19.90;8.57;;;14.80;99.90;;;;;;5039115;28;20100;-78
2021/04/30 04:40:13;;;;;;;22.88;8.95;;;14.90;99.90;;;;;;5069332;28;20083;-79
2021/04/30 04:42:42;;;;;;;20.77;8.50;;;14.90;99.90;;;;;;5067194;28;20028;-79
2021/04/30 04:45:09;;;;;;;17.85;7.95;;;14.90;99.90;;;;;;5037313;28;20121;-81
2021/04/30 04:47:34;;;;;;;22.13;9.13;;;14.90;99.90;;;;;;5048935;28;20029;-80
2021/04/30 04:50:00;;;;;;;15.23;7.82;;;14.90;99.90;;;;;;5057410;28;20085;-81
2021/04/30 04:52:26;;;;;;;23.73;8.50;;;15.00;99.90;;;;;;5062440;28;20030;-80
2021/04/30 04:54:51;;;;;;;18.33;8.27;;;15.00;99.90;;;;;;5052023;28;20036;-84
2021/04/30 04:57:17;;;;;;;18.73;8.20;;;15.00;99.90;;;;;;5046189;28;20191;-81
2021/04/30 04:59:43;;;;;;;18.80;8.30;;;15.10;99.90;;;;;;5037869;28;20029;-80
2021/04/30 05:02:09;;;;;;;18.85;8.30;;;15.10;99.90;;;;;;5038700;28;20032;-80
2021/04/30 05:04:34;;;;;;;21.88;8.90;;;15.20;99.90;;;;;;5047862;28;20029;-80
2021/04/30 05:07:00;;;;;;;18.30;8.02;;;15.20;99.90;;;;;;5044595;28;20030;-80
2021/04/30 05:09:27;;;;;;;15.75;7.40;;;15.30;99.90;;;;;;5046724;28;20614;-79
2021/04/30 05:11:54;;;;;;;21.77;7.63;;;15.40;99.90;;;;;;5045837;28;20016;-79
2021/04/30 05:14:20;;;;;;;16.50;7.55;;;15.40;99.90;;;;;;5045909;28;20017;-78
2021/04/30 05:16:46;;;;;;;23.42;7.00;;;15.40;99.90;;;;;;5046394;28;20053;-79
2021/04/30 05:19:12;;;;;;;20.60;8.30;;;15.40;99.90;;;;;;5040028;28;20021;-82
2021/04/30 05:21:40;;;;;;;15.32;7.90;;;15.40;99.90;;;;;;5034093;28;20109;-82
2021/04/30 05:24:10;;;;;;;16.52;8.40;;;15.40;99.90;;;;;;5032701;28;20436;-80
2021/04/30 05:26:35;;;;;;;16.63;7.55;;;15.50;99.90;;;;;;5034582;28;20092;-81
2021/04/30 05:29:01;;;;;;;15.57;7.38;;;15.50;99.90;;;;;;5035724;28;20026;-80
2021/04/30 05:31:27;;;;;;;13.65;6.47;;;15.60;99.90;;;;;;5037394;28;20025;-79
2021/04/30 05:33:53;;;;;;;15.90;8.05;;;15.60;99.90;;;;;;5042596;28;20029;-80
2021/04/30 05:36:18;;;;;;;21.38;7.15;;;15.80;99.90;;;;;;5036865;28;20025;-81
2021/04/30 05:38:44;;;;;;;15.93;6.28;;;15.90;99.90;;;;;;5040482;28;20388;-81
2021/04/30 05:41:10;;;;;;;17.75;6.50;;;16.00;99.90;;;;;;5049367;28;20032;-79
2021/04/30 05:43:35;;;;;;;20.65;7.20;;;16.10;99.90;;;;;;5042197;28;20168;-78
2021/04/30 05:46:01;;;;;;;13.52;7.00;;;16.20;99.90;;;;;;5050237;28;20045;-78
2021/04/30 05:48:27;;;;;;;14.48;5.35;;;16.30;99.90;;;;;;5042326;28;20101;-80
2021/04/30 05:50:52;;;;;;;11.10;5.93;;;16.40;99.90;;;;;;5033250;28;20026;-80
2021/04/30 05:53:21;;;;;;;11.63;5.13;;;16.50;99.90;;;;;;5041549;28;20143;-81
2021/04/30 05:55:46;;;;;;;17.40;5.30;;;16.70;99.90;;;;;;5051335;28;20040;-79
2021/04/30 05:58:12;;;;;;;17.73;5.22;;;16.90;99.90;;;;;;5042286;28;20249;-82
2021/04/30 06:00:38;;;;;;;14.45;6.10;;;17.00;99.90;;;;;;5032510;28;20033;-80
2021/04/30 06:03:04;;;;;;;18.65;6.22;;;17.20;99.90;;;;;;5041824;28;20024;-79
2021/04/30 06:05:29;;;;;;;18.02;5.50;;;17.40;99.90;;;;;;5032171;28;20018;-81
2021/04/30 06:07:55;;;;;;;11.82;5.22;;;17.50;99.90;;;;;;5043638;28;20102;-80
2021/04/30 06:10:21;;;;;;;11.20;5.07;;;17.50;99.90;;;;;;5032161;28;20021;-81
2021/04/30 06:12:46;;;;;;;14.52;4.82;;;17.50;99.90;;;;;;5046077;28;20029;-80
2021/04/30 06:15:12;;;;;;;16.77;5.78;;;17.60;99.90;;;;;;5012434;28;20421;-78
2021/04/30 06:17:38;;;;;;;16.00;5.25;;;17.60;99.90;;;;;;5033341;28;20108;-80
2021/04/30 06:20:05;;;;;;;14.55;4.78;;;17.60;99.90;;;;;;5050708;28;20044;-79
2021/04/30 06:22:31;;;;;;;14.32;5.13;;;17.60;99.90;;;;;;5044269;28;20037;-80
2021/04/30 06:24:56;;;;;;;16.95;4.90;;;17.80;99.90;;;;;;5032517;28;20389;-81
2021/04/30 06:27:22;;;;;;;15.27;4.65;;;17.90;99.90;;;;;;5037038;28;20030;-78
2021/04/30 06:29:48;;;;;;;12.70;5.45;;;18.00;99.90;;;;;;5048088;28;20059;-80
2021/04/30 06:32:13;;;;;;;12.20;4.70;;;18.20;99.90;;;;;;5043939;28;20033;-78
2021/04/30 06:34:42;;;;;;;12.85;5.03;;;18.40;99.90;;;;;;5046842;28;20029;-79
2021/04/30 06:37:08;;;;;;;15.80;5.25;;;18.70;99.90;;;;;;5044768;28;20036;-77
2021/04/30 06:39:34;;;;;;;12.23;3.63;;;18.90;99.90;;;;;;5044787;28;20050;-78
2021/04/30 06:42:02;;;;;;;17.95;5.43;;;19.10;99.90;;;;;;5045703;28;20083;-79
2021/04/30 06:44:30;;;;;;;13.68;5.57;;;19.10;99.90;;;;;;5045383;28;20032;-79
2021/04/30 06:46:56;;;;;;;11.90;4.45;;;19.20;99.90;;;;;;5045796;28;20131;-79
2021/04/30 06:49:22;;;;;;;15.18;4.60;;;19.30;99.90;;;;;;5044418;28;20187;-79
2021/04/30 06:51:49;;;;;;;10.18;3.70;;;19.40;99.90;;;;;;5044940;28;20029;-78
2021/04/30 06:54:15;;;;;;;7.85;3.90;;;19.50;99.90;;;;;;5039181;28;20018;-77
2021/04/30 06:56:41;;;;;;;9.33;3.97;;;19.50;99.90;;;;;;5034320;28;20033;-80
2021/04/30 06:59:07;;;;;;;9.55;3.83;;;19.50;99.90;;;;;;5038756;28;20292;-78
2021/04/30 07:01:32;;;;;;;7.32;3.85;;;19.60;99.90;;;;;;5034935;28;20032;-78
2021/04/30 07:03:58;;;;;;;16.85;3.75;;;19.60;99.90;;;;;;5042132;28;20127;-78
2021/04/30 07:06:24;;;;;;;7.50;3.30;;;19.50;99.90;;;;;;5047635;28;20025;-78
2021/04/30 07:08:50;;;;;;;13.02;4.82;;;19.70;99.90;;;;;;5041920;28;20099;-76
2021/04/30 07:11:16;;;;;;;13.15;3.80;;;19.90;99.90;;;;;;5047707;28;20376;-77
2021/04/30 07:13:41;;;;;;;10.27;3.90;;;20.00;99.90;;;;;;5042038;28;20040;-78
2021/04/30 07:16:07;;;;;;;10.27;4.22;;;20.00;99.90;;;;;;5047864;28;20061;-79
2021/04/30 07:18:33;;;;;;;8.45;4.22;;;20.20;99.90;;;;;;5041213;28;20433;-78
2021/04/30 07:20:59;;;;;;;15.18;3.63;;;20.20;99.90;;;;;;5048677;28;20032;-77
2021/04/30 07:23:26;;;;;;;6.85;2.97;;;20.30;99.90;;;;;;5040230;28;20488;-79
2021/04/30 07:25:51;;;;;;;9.85;3.65;;;20.50;99.90;;;;;;5049406;28;20079;-78
2021/04/30 07:28:18;;;;;;;9.20;3.97;;;20.60;99.90;;;;;;5034110;28;20026;-78
2021/04/30 07:30:44;;;;;;;10.67;3.17;;;20.80;99.90;;;;;;5029535;28;20030;-78
2021/04/30 07:33:11;;;;;;;8.35;3.55;;;21.00;99.90;;;;;;5038963;28;20260;-78
2021/04/30 07:35:40;;;;;;;11.20;3.83;;;21.20;99.90;;;;;;5031025;28;20048;-79
2021/04/30 07:38:08;;;;;;;13.52;3.45;;;21.40;99.90;;;;;;5038884;28;20041;-77
2021/04/30 07:40:39;;;;;;;8.70;3.10;;;21.50;99.90;;;;;;5050529;28;20051;-78
2021/04/30 07:43:10;;;;;;;10.52;5.47;;;21.80;99.90;;;;;;5038479;28;20030;-79
2021/04/30 07:45:36;;;;;;;9.70;2.92;;;21.90;99.90;;;;;;5050517;28;20029;-79
2021/04/30 07:48:02;;;;;;;11.00;5.13;;;22.00;99.90;;;;;;5038185;28;20437;-77
2021/04/30 07:50:28;;;;;;;8.75;3.58;;;22.00;99.90;;;;;;5050620;28;20032;-78
2021/04/30 07:52:54;;;;;;;6.60;2.88;;;22.10;99.90;;;;;;5038205;28;20506;-78
2021/04/30 07:55:20;;;;;;;9.52;2.63;;;22.10;99.90;;;;;;5050498;28;20036;-78
2021/04/30 07:57:46;;;;;;;9.70;3.20;;;22.10;99.90;;;;;;5038365;28;20020;-81
2021/04/30 08:00:12;;;;;;;19.27;2.92;;;22.10;99.90;;;;;;5017140;28;20030;-79
2021/04/30 08:02:38;;;;;;;9.32;3.30;;;22.10;99.90;;;;;;5041157;28;20017;-78
2021/04/30 08:05:07;;;;;;;10.63;3.38;;;22.00;99.90;;;;;;5022572;28;20099;-78
2021/04/30 08:07:36;;;;;;;6.78;3.00;;;22.00;99.90;;;;;;5038975;28;20017;-78
2021/04/30 08:10:04;;;;;;;9.77;3.33;;;21.90;99.90;;;;;;5035993;28;20064;-77
2021/04/30 08:12:30;;;;;;;11.93;3.13;;;21.90;99.90;;;;;;5039694;28;20025;-78
2021/04/30 08:14:55;;;;;;;8.68;3.05;;;21.80;99.90;;;;;;5051885;28;20479;-78
2021/04/30 08:17:21;;;;;;;12.20;3.25;;;21.80;99.90;;;;;;5044324;28;20026;-78
2021/04/30 08:19:47;;;;;;;11.45;3.00;;;21.80;99.90;;;;;;5050619;28;20029;-81
2021/04/30 08:22:12;;;;;;;13.90;3.78;;;21.70;99.90;;;;;;5045614;28;20037;-78
2021/04/30 08:24:38;;;;;;;4.47;2.88;;;21.80;99.90;;;;;;5049070;28;20576;-79
2021/04/30 08:27:04;;;;;;;10.43;3.13;;;21.80;99.90;;;;;;5046547;28;20036;-79
2021/04/30 08:29:30;;;;;;;14.43;3.10;;;21.80;99.90;;;;;;5048285;28;20029;-79
2021/04/30 08:31:55;;;;;;;9.93;2.63;;;21.90;99.90;;;;;;5048757;28;20083;-77
2021/04/30 08:34:21;;;;;;;8.18;3.35;;;21.70;99.90;;;;;;5047414;28;20029;-77
2021/04/30 08:36:47;;;;;;;10.35;3.08;;;21.40;99.90;;;;;;5049008;28;20044;-78
2021/04/30 08:39:13;;;;;;;7.55;2.55;;;21.20;99.90;;;;;;5050398;28;20029;-78
2021/04/30 08:41:41;;;;;;;4.30;2.00;;;21.00;99.90;;;;;;5062630;28;20052;-78
2021/04/30 08:44:08;;;;;;;9.05;2.33;;;21.20;99.90;;;;;;5053246;28;20387;-78
2021/04/30 08:46:37;;;;;;;9.98;2.10;;;21.50;99.90;;;;;;5050546;28;20029;-80
2021/04/30 08:49:11;;;;;;;6.03;2.10;;;21.40;99.90;;;;;;5048343;28;20024;-79
2021/04/30 08:51:38;;;;;;;5.82;2.00;;;21.30;99.90;;;;;;5069963;28;20306;-79
2021/04/30 08:54:05;;;;;;;5.35;2.13;;;21.20;99.90;;;;;;5051884;28;20022;-78
2021/04/30 08:56:32;;;;;;;3.35;1.70;;;21.00;99.90;;;;;;5037741;28;20021;-78
2021/04/30 08:58:57;;;;;;;4.68;1.63;;;21.10;99.90;;;;;;5044603;28;20029;-78
2021/04/30 09:01:23;;;;;;;6.15;1.60;;;21.30;99.90;;;;;;5049373;28;20377;-77
2021/04/30 09:03:51;;;;;;;4.10;1.80;;;21.50;99.90;;;;;;5044367;28;20024;-77
2021/04/30 09:06:32;;;;;;;7.45;1.88;;;21.50;99.90;;;;;;5049777;28;20087;-77
2021/04/30 09:09:04;;;;;;;3.65;1.27;;;21.50;99.90;;;;;;5044304;28;20025;-79
2021/04/30 09:11:36;;;;;;;5.15;1.80;;;21.50;99.90;;;;;;5049838;28;20025;-77
2021/04/30 09:14:30;;;;;;;7.10;1.50;;;21.70;99.90;;;;;;5044045;28;20025;-78
2021/04/30 09:17:12;;;;;;;7.63;2.03;;;21.60;99.90;;;;;;5047716;28;20065;-77
2021/04/30 09:19:50;;;;;;;11.52;3.15;;;21.30;99.90;;;;;;5048487;28;20043;-78
2021/04/30 09:22:17;;;;;;;7.97;2.50;;;21.30;99.90;;;;;;5045059;28;20025;-79
2021/04/30 09:24:42;;;;;;;5.97;2.75;;;20.90;99.90;;;;;;5048739;28;20048;-78
2021/04/30 09:27:09;;;;;;;6.72;2.30;;;20.40;99.90;;;;;;5046180;28;20034;-77
2021/04/30 09:29:36;;;;;;;6.95;3.45;;;20.00;99.90;;;;;;5046606;28;20035;-77
2021/04/30 09:32:03;;;;;;;8.75;2.95;;;20.00;99.90;;;;;;5046836;28;20468;-79
2021/04/30 09:34:35;;;;;;;10.10;3.50;;;19.90;99.90;;;;;;5046920;28;20037;-78
2021/04/30 09:37:20;;;;;;;13.10;3.67;;;19.80;99.90;;;;;;5047214;28;20047;-76
2021/04/30 09:39:59;;;;;;;8.70;3.00;;;19.70;99.90;;;;;;5049147;28;20025;-77
2021/04/30 09:42:30;;;;;;;10.88;3.58;;;19.90;99.90;;;;;;5043511;28;20079;-78
2021/04/30 09:45:01;;;;;;;8.30;3.17;;;20.00;99.90;;;;;;5035199;28;20044;-77
2021/04/30 09:47:35;;;;;;;7.82;3.55;;;20.30;99.90;;;;;;5040401;28;20113;-78
2021/04/30 09:50:03;;;;;;;8.55;3.03;;;20.60;99.90;;;;;;5034207;28;20037;-78
2021/04/30 09:52:29;;;;;;;12.68;3.92;;;20.80;99.90;;;;;;5038213;28;20030;-78
2021/04/30 09:55:01;;;;;;;11.23;3.57;;;20.70;99.90;;;;;;5048516;28;20021;-78
2021/04/30 09:57:30;;;;;;;16.50;3.35;;;20.80;99.90;;;;;;5044413;28;20029;-78
2021/04/30 10:00:05;;;;;;;11.15;3.13;;;20.90;99.90;;;;;;5033349;28;20476;-79
2021/04/30 10:02:35;;;;;;;14.43;3.30;;;21.00;99.90;;;;;;5037529;28;20029;-78
2021/04/30 10:05:18;;;;;;;14.40;3.03;;;20.80;99.90;;;;;;5050288;28;20120;-79
2021/04/30 10:07:44;;;;;;;7.43;3.80;;;20.80;99.90;;;;;;5040235;28;20057;-80
2021/04/30 10:10:18;;;;;;;10.73;3.92;;;21.20;99.90;;;;;;5051919;28;20270;-79
2021/04/30 10:12:54;;;;;;;9.55;3.47;;;21.30;99.90;;;;;;5038800;28;20033;-77
2021/04/30 10:15:21;;;;;;;7.18;3.35;;;21.70;99.90;;;;;;5012141;28;20022;-77
2021/04/30 10:17:58;;;;;;;11.35;3.20;;;21.90;99.90;;;;;;5035006;28;20032;-78
2021/04/30 10:20:24;;;;;;;14.73;3.60;;;21.90;99.90;;;;;;5012518;28;20026;-78
2021/04/30 10:22:51;;;;;;;13.45;3.60;;;21.60;99.90;;;;;;5038792;28;20120;-78
2021/04/30 10:25:20;;;;;;;10.60;3.05;;;21.10;99.90;;;;;;5030260;28;20041;-78
2021/04/30 10:27:47;;;;;;;12.75;3.58;;;20.80;99.90;;;;;;5037018;28;20434;-79
2021/04/30 10:30:37;;;;;;;5.20;2.50;;;20.40;99.90;;;;;;5010823;28;20033;-78
2021/04/30 10:33:31;;;;;;;11.50;2.72;;;20.20;99.90;;;;;;5038903;28;20026;-78
2021/04/30 10:36:18;;;;;;;6.85;2.58;;;20.40;99.90;;;;;;5050277;28;20035;-78
2021/04/30 10:38:54;;;;;;;10.50;4.18;;;20.70;99.90;;;;;;5035723;28;20111;-78
2021/04/30 10:41:33;;;;;;;7.43;2.75;;;20.60;99.90;;;;;;5033659;28;20030;-77
2021/04/30 10:44:17;;;;;;;6.80;2.90;;;20.50;99.90;;;;;;5042534;28;20037;-78
2021/04/30 10:46:47;;;;;;;11.52;2.90;;;20.70;99.90;;;;;;5047605;28;20064;-78
2021/04/30 10:49:24;;;;;;;9.90;2.83;;;20.30;99.90;;;;;;5035182;28;20020;-77
2021/04/30 10:52:24;;;;;;;9.00;2.85;;;20.00;99.90;;;;;;5046954;28;20033;-79
2021/04/30 10:55:06;;;;;;;6.55;2.40;;;20.20;99.90;;;;;;5046605;28;20029;-78
2021/04/30 10:57:57;;;;;;;6.22;2.47;;;20.40;99.90;;;;;;5040880;28;20021;-78
2021/04/30 11:00:35;;;;;;;12.32;3.08;;;20.10;99.90;;;;;;5011690;28;20053;-78
2021/04/30 11:03:13;;;;;;;;;;;20.00;99.90;;;;;;5042717;28;20057;-77
2021/04/30 11:05:51;;;;;;;8.15;2.75;;;20.10;99.90;;;;;;5029868;28;20434;-78
2021/04/30 11:08:16;;;;;;;9.65;3.10;;;19.90;99.90;;;;;;5041367;28;20030;-79
2021/04/30 11:10:42;;;;;;;10.65;3.17;;;20.00;99.90;;;;;;5030878;28;20028;-78
2021/04/30 11:13:14;;;;;;;11.10;2.85;;;20.00;99.90;;;;;;5040864;28;20051;-80
2021/04/30 11:15:46;;;;;;;8.13;2.88;;;20.00;99.90;;;;;;5054881;28;20021;-78
2021/04/30 11:18:14;;;;;;;11.27;3.40;;;20.30;99.90;;;;;;5039474;28;20017;-78
2021/04/30 11:20:42;;;;;;;7.18;2.50;;;20.60;99.90;;;;;;5051142;28;20033;-77
2021/04/30 11:23:21;;;;;;;6.50;2.30;;;20.80;99.90;;;;;;5041887;28;20049;-76
2021/04/30 11:25:58;;;;;;;9.20;2.90;;;21.00;99.90;;;;;;5030517;28;20034;-78
2021/04/30 11:28:30;;;;;;;10.48;3.53;;;20.80;99.90;;;;;;5039913;28;20031;-78
2021/04/30 11:31:03;;;;;;;12.48;3.42;;;20.90;99.90;;;;;;5049561;28;20029;-78
2021/04/30 11:33:29;;;;;;;7.57;2.95;;;21.10;99.90;;;;;;5040107;28;20017;-77
2021/04/30 11:35:56;;;;;;;6.20;2.40;;;20.90;99.90;;;;;;5049478;28;20108;-79
2021/04/30 11:38:48;;;;;;;6.97;2.30;;;21.10;99.90;;;;;;5036575;28;20029;-79
2021/04/30 11:41:14;;;;;;;8.50;2.67;;;21.30;99.90;;;;;;5047278;28;20029;-80
2021/04/30 11:43:47;;;;;;;9.70;2.65;;;21.40;99.90;;;;;;5041528;28;20091;-77
2021/04/30 11:46:12;;;;;;;7.05;2.50;;;21.40;99.90;;;;;;5047008;28;20029;-78
2021/04/30 11:48:42;;;;;;;6.43;2.13;;;21.60;99.90;;;;;;5041641;28;20067;-77
2021/04/30 11:51:10;;;;;;;10.32;2.58;;;21.40;99.90;;;;;;5048454;28;20037;-78
2021/04/30 11:53:39;;;;;;;10.20;2.50;;;21.40;99.90;;;;;;5045985;28;20029;-76
2021/04/30 11:56:06;;;;;;;9.18;2.80;;;21.10;99.90;;;;;;5048144;28;20071;-76
2021/04/30 11:58:36;;;;;;;11.77;2.40;;;21.10;99.90;;;;;;5040909;28;20059;-77
2021/04/30 12:01:03;;;;;;;7.30;2.88;;;21.40;99.90;;;;;;5048620;28;20021;-80
2021/04/30 12:03:40;;;;;;;12.52;2.15;;;21.70;99.90;;;;;;5043456;28;20032;-78
2021/04/30 12:06:08;;;;;;;6.68;1.85;;;21.70;99.90;;;;;;5032648;28;20065;-78
2021/04/30 12:08:34;;;;;;;5.60;1.60;;;22.10;99.90;;;;;;5043979;28;20021;-77
2021/04/30 12:11:00;;;;;;;9.10;2.63;;;22.30;99.90;;;;;;5048432;28;20072;-78
2021/04/30 12:13:25;;;;;;;5.68;1.92;;;22.40;99.90;;;;;;5040491;28;20619;-77
2021/04/30 12:15:51;;;;;;;5.20;1.27;;;23.30;99.90;;;;;;5049166;28;20025;-77
2021/04/30 12:18:17;;;;;;;4.30;1.73;;;24.40;98.00;;;;;;5039176;28;20029;-78
2021/04/30 12:20:43;;;;;;;6.37;1.83;;;25.50;95.50;;;;;;5048897;28;20078;-77
2021/04/30 12:23:13;;;;;;;5.78;1.77;;;26.20;95.00;;;;;;5035435;28;20514;-80
2021/04/30 12:25:40;;;;;;;6.82;2.08;;;26.70;92.30;;;;;;5047357;28;20555;-80
2021/04/30 12:28:22;;;;;;;8.32;1.90;;;26.80;91.70;;;;;;5035392;28;20515;-79
2021/04/30 12:31:00;;;;;;;6.40;1.70;;;28.30;87.60;;;;;;5046587;28;20025;-78
2021/04/30 12:33:42;;;;;;;6.75;1.77;;;29.20;79.30;;;;;;5035615;28;20162;-77
2021/04/30 12:36:11;;;;;;;12.18;2.63;;;29.70;77.20;;;;;;5044738;28;20434;-80
2021/04/30 12:38:39;;;;;;;9.32;1.65;;;28.50;78.20;;;;;;5032385;28;20403;-80
2021/04/30 12:41:16;;;;;;;6.43;1.60;;;28.70;78.60;;;;;;5029939;28;20025;-77
2021/04/30 12:43:42;;;;;;;;;;;29.50;76.40;;;;;;5037776;28;20073;-79